Time;durP1;ratioP1;P1;durP2;ratioP2;P2;SDS_P1;SDS_P2;PMS_P1;PMS_P2;Temp;Humidity;BMP_temperature;BMP_pressure;BME280_temperature;BME280_humidity;BME280_pressure;Samples;Min_cycle;Max_cycle;Signal;HPM_P1;HPM_P2
2021/06/10 00:00:41;;;;;;;;;;;;;;;25.50;42.30;99910.25;1805661;79;20142;-80
2021/06/10 00:03:07;;;;;;;;;;;;;;;25.50;42.44;99904.76;1805475;78;20128;-77
2021/06/10 00:05:35;;;;;;;;;;;;;;;25.50;42.47;99912.44;1804525;79;20132;-80
2021/06/10 00:08:01;;;;;;;;;;;;;;;25.50;42.58;99906.13;1805297;79;20449;-80
2021/06/10 00:10:29;;;;;;;;;;;;;;;25.50;42.62;99908.32;1805410;79;20144;-81
2021/06/10 00:12:55;;;;;;;;;;;;;;;25.51;42.71;99911.89;1806393;78;20456;-81
2021/06/10 00:15:24;;;;;;;;;;;;;;;25.50;42.72;99908.87;1805613;79;20148;-81
2021/06/10 00:17:52;;;;;;;;;;;;;;;25.51;42.74;99899.55;1807022;79;20143;-80
2021/06/10 00:20:20;;;;;;;;;;;;;;;25.33;43.20;99900.04;1807984;79;20159;-81
2021/06/10 00:22:46;;;;;;;;;;;;;;;25.03;43.83;99906.48;1805781;79;20136;-81
2021/06/10 00:25:12;;;;;;;;;;;;;;;24.97;44.05;99895.75;1803876;78;20202;-81
2021/06/10 00:27:39;;;;;;;;;;;;;;;24.93;44.29;99892.71;1804059;79;20163;-79
2021/06/10 00:30:07;;;;;;;;;;;;;;;24.90;44.47;99893.81;1802792;79;20140;-78
2021/06/10 00:32:33;;;;;;;;;;;;;;;24.89;44.61;99894.87;1802886;79;20135;-79
2021/06/10 00:34:59;;;;;;;;;;;;;;;24.87;44.66;99900.64;1803337;79;20202;-80
2021/06/10 00:37:25;;;;;;;;;;;;;;;24.86;44.81;99903.11;1803836;79;20153;-79
2021/06/10 00:39:51;;;;;;;;;;;;;;;24.83;44.86;99900.89;1804502;79;20132;-79
2021/06/10 00:42:17;;;;;;;;;;;;;;;24.82;44.95;99900.61;1803632;79;20124;-79
2021/06/10 00:44:44;;;;;;;;;;;;;;;24.80;45.06;99897.33;1778520;79;20404;-79
2021/06/10 00:47:10;;;;;;;;;;;;;;;24.80;45.16;99904.17;1805938;79;20135;-80
2021/06/10 00:49:36;;;;;;;;;;;;;;;24.79;45.27;99899.22;1805580;79;20156;-80
2021/06/10 00:52:03;;;;;;;;;;;;;;;24.77;45.32;99895.11;1805521;79;20090;-80
2021/06/10 00:54:29;;;;;;;;;;;;;;;24.76;45.43;99897.03;1805720;79;20193;-80
2021/06/10 00:56:56;;;;;;;;;;;;;;;24.74;45.49;99896.45;1805682;79;20122;-80
2021/06/10 00:59:22;;;;;;;;;;;;;;;24.72;45.64;99902.75;1802416;78;20201;-80
2021/06/10 01:01:48;;;;;;;;;;;;;;;24.69;45.77;99896.98;1805919;78;20177;-79
2021/06/10 01:04:14;;;;;;;;;;;;;;;24.65;45.90;99899.41;1806434;79;20126;-79
2021/06/10 01:06:53;;;;;;;;;;;;;;;24.65;45.97;99896.67;1805114;79;20208;-80
2021/06/10 01:09:29;;;;;;;;;;;;;;;24.65;46.03;99898.59;1805068;79;20149;-79
2021/06/10 01:12:01;;;;;;;;;;;;;;;24.62;46.12;99902.70;1804155;79;20128;-79
2021/06/10 01:14:36;;;;;;;;;;;;;;;24.72;46.10;99895.91;1804651;79;20144;-80
2021/06/10 01:17:04;;;;;;;;;;;;;;;24.68;46.25;99900.81;1804184;79;20163;-78
2021/06/10 01:19:43;;;;;;;;;;;;;;;24.67;46.29;99901.36;1770592;79;20543;-80
2021/06/10 01:22:19;;;;;;;;;;;;;;;24.67;46.35;99908.20;1800155;79;20423;-80
2021/06/10 01:24:51;;;;;;;;;;;;;;;24.67;46.40;99905.47;1798331;79;20177;-79
2021/06/10 01:27:29;;;;;;;;;;;;;;;24.68;46.43;99903.55;1803273;79;20141;-79
2021/06/10 01:30:08;;;;;;;;;;;;;;;24.68;46.51;99896.16;1802845;79;20173;-78
2021/06/10 01:32:35;;;;;;;;;;;;;;;24.69;46.61;99891.50;1803307;79;20162;-79
2021/06/10 01:35:01;;;;;;;;;;;;;;;24.67;46.71;99894.52;1805620;79;20196;-79
2021/06/10 01:37:27;;;;;;;;;;;;;;;24.67;46.83;99894.52;1804218;79;20191;-79
2021/06/10 01:39:52;;;;;;;;;;;;;;;24.67;46.92;99903.28;1804236;79;20242;-79
2021/06/10 01:42:19;;;;;;;;;;;;;;;24.65;46.99;99899.41;1781900;79;20199;-79
2021/06/10 01:44:44;;;;;;;;;;;;;;;24.63;47.01;99908.45;1788829;79;20282;-78
2021/06/10 01:47:10;;;;;;;;;;;;;;;24.62;47.13;99904.59;1803138;79;20288;-78
2021/06/10 01:49:37;;;;;;;;;;;;;;;24.59;47.20;99907.88;1803545;79;20193;-78
2021/06/10 01:52:04;;;;;;;;;;;;;;;24.60;47.28;99908.15;1802932;79;20208;-78
2021/06/10 01:54:32;;;;;;;;;;;;;;;24.65;47.27;99912.28;1803219;79;20197;-78
2021/06/10 01:56:58;;;;;;;;;;;;;;;24.68;47.26;99909.03;1801870;79;20228;-78
2021/06/10 01:59:24;;;;;;;;;;;;;;;24.68;47.28;99916.70;1774897;79;20880;-78
2021/06/10 02:01:50;;;;;;;;;;;;;;;24.70;47.30;99914.50;1773228;80;20139;-80
2021/06/10 02:04:16;;;;;;;;;;;;;;;24.71;47.33;99917.55;1773227;81;20156;-78
2021/06/10 02:06:43;;;;;;;;;;;;;;;24.70;47.34;99919.98;1753667;81;20124;-78
2021/06/10 02:09:10;;;;;;;;;;;;;;;24.71;47.36;99912.62;1773220;81;20187;-78
2021/06/10 02:11:37;;;;;;;;;;;;;;;24.69;47.40;99919.70;1772808;80;20183;-78
2021/06/10 02:14:03;;;;;;;;;;;;;;;24.68;47.46;99913.95;1773017;81;20437;-78
2021/06/10 02:16:29;;;;;;;;;;;;;;;24.68;47.40;99914.51;1773150;81;20460;-78
2021/06/10 02:18:56;;;;;;;;;;;;;;;24.66;47.49;99916.12;1773285;81;20141;-79
2021/06/10 02:21:22;;;;;;;;;;;;;;;24.66;47.61;99918.03;1773191;80;20445;-78
2021/06/10 02:23:49;;;;;;;;;;;;;;;24.60;47.72;99911.70;1785012;79;20193;-77
2021/06/10 02:26:15;;;;;;;;;;;;;;;24.59;47.74;99918.28;1804586;79;20153;-77
2021/06/10 02:28:41;;;;;;;;;;;;;;;24.58;47.80;99920.75;1804638;79;20126;-77
2021/06/10 02:31:08;;;;;;;;;;;;;;;24.56;47.90;99916.06;1804325;79;20158;-78
2021/06/10 02:33:36;;;;;;;;;;;;;;;24.56;47.94;99921.53;1804324;79;20118;-78
2021/06/10 02:36:06;;;;;;;;;;;;;;;24.54;47.98;99916.33;1804361;79;20154;-78
2021/06/10 02:38:33;;;;;;;;;;;;;;;24.54;47.93;99914.14;1804486;79;20431;-78
2021/06/10 02:41:00;;;;;;;;;;;;;;;24.54;48.03;99915.52;1804613;79;20164;-77
2021/06/10 02:43:32;;;;;;;;;;;;;;;24.55;48.06;99917.16;1804253;79;20165;-77
2021/06/10 02:45:58;;;;;;;;;;;;;;;24.56;48.06;99914.69;1803915;79;20450;-77
2021/06/10 02:48:24;;;;;;;;;;;;;;;24.55;48.11;99913.05;1804349;79;20438;-77
2021/06/10 02:50:51;;;;;;;;;;;;;;;24.56;48.11;99917.43;1804262;79;20127;-77
2021/06/10 02:53:18;;;;;;;;;;;;;;;24.55;48.12;99911.13;1804401;79;20129;-78
2021/06/10 02:55:46;;;;;;;;;;;;;;;24.56;48.09;99910.58;1804321;79;20174;-77
2021/06/10 02:58:19;;;;;;;;;;;;;;;24.57;48.09;99910.03;1804351;79;20134;-77
2021/06/10 03:00:45;;;;;;;;;;;;;;;24.59;48.13;99905.14;1804701;79;20150;-77
2021/06/10 03:03:13;;;;;;;;;;;;;;;24.59;48.11;99907.33;1804355;79;20424;-77
2021/06/10 03:05:40;;;;;;;;;;;;;;;24.62;48.13;99904.59;1803211;79;20161;-77
2021/06/10 03:08:07;;;;;;;;;;;;;;;24.65;48.19;99909.55;1803034;79;20176;-77
2021/06/10 03:10:34;;;;;;;;;;;;;;;24.68;48.10;99913.95;1803307;79;20165;-77
2021/06/10 03:13:02;;;;;;;;;;;;;;;24.68;48.05;99912.59;1802944;79;20188;-78
2021/06/10 03:15:29;;;;;;;;;;;;;;;24.73;48.00;99916.72;1802192;79;20173;-78
2021/06/10 03:17:54;;;;;;;;;;;;;;;24.75;47.99;99904.98;1802732;79;20169;-77
2021/06/10 03:20:21;;;;;;;;;;;;;;;24.76;47.96;99907.98;1804122;78;20208;-77
2021/06/10 03:22:47;;;;;;;;;;;;;;;24.77;47.91;99906.06;1785865;79;20186;-77
2021/06/10 03:25:13;;;;;;;;;;;;;;;24.76;47.98;99898.40;1824208;78;20202;-77
2021/06/10 03:27:39;;;;;;;;;;;;;;;24.76;48.00;99907.16;1792295;80;20183;-77
2021/06/10 03:30:06;;;;;;;;;;;;;;;24.76;48.03;99908.53;1774778;80;20161;-77
2021/06/10 03:32:32;;;;;;;;;;;;;;;24.77;48.02;99909.63;1792040;80;20170;-78
2021/06/10 03:34:59;;;;;;;;;;;;;;;24.77;47.98;99915.11;1791842;80;20325;-77
2021/06/10 03:37:25;;;;;;;;;;;;;;;24.78;48.02;99915.38;1786956;80;20164;-77
2021/06/10 03:39:51;;;;;;;;;;;;;;;24.78;48.09;99912.64;1751855;81;20168;-77
2021/06/10 03:42:20;;;;;;;;;;;;;;;24.83;48.07;99912.39;1760077;80;20206;-77
2021/06/10 03:44:47;;;;;;;;;;;;;;;24.83;48.10;99905.55;1790615;78;20514;-78
2021/06/10 03:47:13;;;;;;;;;;;;;;;24.85;48.20;99903.38;1823419;78;20733;-77
2021/06/10 03:49:40;;;;;;;;;;;;;;;24.88;48.12;99914.61;1821072;78;20218;-77
2021/06/10 03:52:07;;;;;;;;;;;;;;;24.89;47.95;99913.55;1804030;78;20221;-77
2021/06/10 03:54:33;;;;;;;;;;;;;;;24.88;47.94;99911.88;1822178;77;20153;-78
2021/06/10 03:57:00;;;;;;;;;;;;;;;24.89;47.94;99914.06;1793767;80;20138;-78
2021/06/10 03:59:26;;;;;;;;;;;;;;;24.90;47.94;99914.36;1812804;79;20134;-77
2021/06/10 04:01:52;;;;;;;;;;;;;;;24.90;47.96;99913.81;1787145;80;20133;-78
2021/06/10 04:04:18;;;;;;;;;;;;;;;24.88;48.02;99915.98;1826782;78;20231;-78
2021/06/10 04:06:45;;;;;;;;;;;;;;;24.87;47.92;99914.89;1825953;78;20512;-78
2021/06/10 04:09:12;;;;;;;;;;;;;;;24.88;47.98;99913.78;1825609;78;20563;-77
2021/06/10 04:11:39;;;;;;;;;;;;;;;24.92;48.06;99917.09;1823127;78;20203;-79
2021/06/10 04:14:06;;;;;;;;;;;;;;;24.94;48.05;99916.30;1825761;78;20237;-79
2021/06/10 04:16:33;;;;;;;;;;;;;;;24.99;47.91;99912.77;1827300;78;20575;-79
2021/06/10 04:19:00;;;;;;;;;;;;;;;25.02;47.89;99912.21;1811547;77;20179;-78
2021/06/10 04:21:26;;;;;;;;;;;;;;;25.07;47.86;99910.86;1788826;79;20154;-79
2021/06/10 04:23:52;;;;;;;;;;;;;;;25.11;47.78;99907.90;1801942;79;20165;-78
2021/06/10 04:26:19;;;;;;;;;;;;;;;25.14;47.68;99912.86;1777323;79;20170;-78
2021/06/10 04:28:45;;;;;;;;;;;;;;;25.14;47.51;99905.19;1801320;79;20181;-79
2021/06/10 04:31:13;;;;;;;;;;;;;;;25.15;47.61;99905.45;1801287;79;20161;-79
2021/06/10 04:33:39;;;;;;;;;;;;;;;25.17;47.58;99904.11;1800855;79;20213;-77
2021/06/10 04:36:05;;;;;;;;;;;;;;;25.20;47.46;99901.36;1796472;79;20164;-79
2021/06/10 04:38:31;;;;;;;;;;;;;;;25.18;47.37;99905.75;1777048;79;20209;-78
2021/06/10 04:40:57;;;;;;;;;;;;;;;25.19;47.45;99906.02;1798242;79;20180;-79
2021/06/10 04:43:23;;;;;;;;;;;;;;;25.21;47.54;99905.23;1796618;78;20170;-78
2021/06/10 04:45:49;;;;;;;;;;;;;;;25.23;47.46;99915.36;1772874;79;20470;-78
2021/06/10 04:48:16;;;;;;;;;;;;;;;25.29;47.57;99918.94;1801823;79;20645;-79
2021/06/10 04:50:42;;;;;;;;;;;;;;;25.34;47.45;99919.50;1800742;79;20197;-78
2021/06/10 04:53:08;;;;;;;;;;;;;;;25.40;47.38;99915.70;1797109;78;20496;-78
2021/06/10 04:55:35;;;;;;;;;;;;;;;25.46;47.32;99914.06;1794176;79;20955;-78
2021/06/10 04:58:01;;;;;;;;;;;;;;;25.55;47.24;99914.37;1798360;79;20198;-77
2021/06/10 05:00:27;;;;;;;;;;;;;;;25.61;47.00;99913.83;1797470;79;20240;-77
2021/06/10 05:02:53;;;;;;;;;;;;;;;25.64;46.78;99915.48;1795313;79;21503;-76
2021/06/10 05:05:19;;;;;;;;;;;;;;;25.70;46.78;99916.31;1796453;79;20193;-77
2021/06/10 05:07:45;;;;;;;;;;;;;;;25.76;46.85;99917.47;1790591;78;20215;-78
2021/06/10 05:10:12;;;;;;;;;;;;;;;25.85;46.72;99917.77;1806368;78;20240;-77
2021/06/10 05:12:37;;;;;;;;;;;;;;;25.90;46.45;99915.02;1788689;79;20207;-78
2021/06/10 05:15:05;;;;;;;;;;;;;;;25.96;46.46;99913.09;1791823;78;20199;-77
2021/06/10 05:17:31;;;;;;;;;;;;;;;25.99;46.36;99911.19;1791571;78;20218;-78
2021/06/10 05:19:57;;;;;;;;;;;;;;;26.02;46.11;99912.00;1769455;79;20205;-81
2021/06/10 05:22:23;;;;;;;;;;;;;;;26.03;46.09;99915.04;1795595;79;20184;-79
2021/06/10 05:24:49;;;;;;;;;;;;;;;26.03;46.06;99915.04;1793739;78;20221;-79
2021/06/10 05:27:27;;;;;;;;;;;;;;;26.03;46.26;99911.75;1796377;78;20239;-79
2021/06/10 05:29:50;;;;;;;;;;;;;;;26.04;46.20;99914.76;1797900;78;20109;-78
2021/06/10 05:32:16;;;;;;;;;;;;;;;26.06;46.06;99914.47;1800245;78;20191;-79
2021/06/10 05:34:42;;;;;;;;;;;;;;;26.06;46.12;99911.17;1796211;78;20216;-79
2021/06/10 05:37:08;;;;;;;;;;;;;;;26.07;46.13;99914.73;1797578;78;20157;-79
2021/06/10 05:39:34;;;;;;;;;;;;;;;26.09;46.24;99915.30;1795353;78;20172;-79
2021/06/10 05:42:01;;;;;;;;;;;;;;;26.12;46.22;99916.14;1791963;78;20161;-78
2021/06/10 05:44:28;;;;;;;;;;;;;;;26.16;46.15;99922.73;1793856;78;20113;-78
2021/06/10 05:46:56;;;;;;;;;;;;;;;26.16;45.96;99918.61;1793625;78;20103;-79
2021/06/10 05:49:22;;;;;;;;;;;;;;;26.15;46.01;99917.50;1796337;78;20522;-79
2021/06/10 05:51:48;;;;;;;;;;;;;;;26.16;46.08;99925.48;1797096;78;20166;-78
2021/06/10 05:54:14;;;;;;;;;;;;;;;26.17;46.14;99925.75;1774320;79;20097;-78
2021/06/10 05:56:40;;;;;;;;;;;;;;;26.17;46.04;99929.86;1795107;78;20169;-78
2021/06/10 05:59:06;;;;;;;;;;;;;;;26.17;46.08;99931.23;1800087;79;20151;-80
2021/06/10 06:01:34;;;;;;;;;;;;;;;26.19;46.13;99931.77;1793162;79;20610;-82
2021/06/10 06:04:00;;;;;;;;;;;;;;;26.19;45.98;99937.27;1797676;78;20097;-80
2021/06/10 06:06:26;;;;;;;;;;;;;;;26.21;46.02;99941.13;1796175;78;20246;-80
2021/06/10 06:08:52;;;;;;;;;;;;;;;26.20;46.03;99948.52;1796958;78;20139;-79
2021/06/10 06:11:19;;;;;;;;;;;;;;;26.19;46.01;99946.88;1796216;78;20217;-79
2021/06/10 06:16:15;;;;;;;;;;;;;;;26.14;46.12;99950.98;1795043;78;20101;-79
2021/06/10 06:18:42;;;;;;;;;;;;;;;26.12;46.20;99944.96;1799105;78;20093;-80
2021/06/10 06:21:08;;;;;;;;;;;;;;;26.11;46.36;99949.33;1799979;78;20153;-78
2021/06/10 06:23:34;;;;;;;;;;;;;;;26.10;46.49;99949.06;1798343;78;20163;-79
2021/06/10 06:26:00;;;;;;;;;;;;;;;26.10;46.53;99951.26;1794585;78;20202;-78
2021/06/10 06:28:27;;;;;;;;;;;;;;;26.12;46.57;99949.63;1792831;78;20499;-78
2021/06/10 06:30:53;;;;;;;;;;;;;;;26.13;46.56;99950.72;1799562;78;20548;-78
2021/06/10 06:33:18;;;;;;;;;;;;;;;26.14;46.48;99953.73;1746449;78;20248;-80
2021/06/10 06:35:45;;;;;;;;;;;;;;;26.16;46.57;99954.82;1795184;78;20206;-78
2021/06/10 06:38:12;;;;;;;;;;;;;;;26.17;46.25;99957.31;1788060;78;20336;-78
2021/06/10 06:40:40;;;;;;;;;;;;;;;26.19;45.98;99953.73;1795266;78;20232;-78
2021/06/10 06:43:07;;;;;;;;;;;;;;;26.24;45.81;99959.22;1772112;78;20272;-80
2021/06/10 06:45:34;;;;;;;;;;;;;;;26.25;45.45;99967.76;1798231;78;20189;-79
2021/06/10 06:48:00;;;;;;;;;;;;;;;26.28;45.59;99963.07;1791565;78;20203;-79
2021/06/10 06:50:27;;;;;;;;;;;;;;;26.32;45.58;99967.47;1792255;78;20196;-78
2021/06/10 06:52:54;;;;;;;;;;;;;;;26.36;45.66;99968.58;1766998;78;20194;-78
2021/06/10 06:55:21;;;;;;;;;;;;;;;26.39;45.41;99963.06;1792423;78;20559;-78
2021/06/10 06:57:48;;;;;;;;;;;;;;;26.39;45.55;99963.06;1788908;78;20203;-77
2021/06/10 07:00:14;;;;;;;;;;;;;;;26.41;45.38;99960.89;1788001;78;20204;-77
2021/06/10 07:02:40;;;;;;;;;;;;;;;26.45;45.39;99962.84;1754204;78;20205;-77
2021/06/10 07:05:09;;;;;;;;;;;;;;;26.51;45.59;99962.28;1802431;77;20196;-77
2021/06/10 07:07:35;;;;;;;;;;;;;;;26.55;44.97;99946.89;1808251;77;20133;-76
2021/06/10 07:10:02;;;;;;;;;;;;;;;26.62;45.38;99951.57;1809515;77;20161;-76
2021/06/10 07:12:28;;;;;;;;;;;;;;;26.69;45.19;99952.09;1772576;79;20096;-76
2021/06/10 07:14:55;;;;;;;;;;;;;;;26.74;45.02;99952.08;1781165;78;20674;-78
2021/06/10 07:17:22;;;;;;;;;;;;;;;26.80;44.91;99948.24;1781327;78;20195;-77
2021/06/10 07:19:52;;;;;;;;;;;;;;;26.89;44.35;99954.52;1783217;78;20574;-79
2021/06/10 07:22:17;;;;;;;;;;;;;;;26.97;43.83;99957.53;1789901;78;20283;-78
2021/06/10 07:24:46;;;;;;;;;;;;;;;27.05;44.17;99956.95;1808956;77;20232;-78
2021/06/10 07:27:11;;;;;;;;;;;;;;;27.12;44.23;99956.71;1777416;78;20183;-79
2021/06/10 07:29:37;;;;;;;;;;;;;;;27.20;44.44;99958.86;1780607;78;20890;-78
2021/06/10 07:32:05;;;;;;;;;;;;;;;27.27;44.14;99949.77;1791249;78;20167;-79
2021/06/10 07:34:34;;;;;;;;;;;;;;;27.37;43.76;99959.91;1794690;78;20581;-77
2021/06/10 07:37:00;;;;;;;;;;;;;;;27.42;43.77;99952.18;1779478;78;20380;-77
2021/06/10 07:39:26;;;;;;;;;;;;;;;27.48;43.60;99955.17;1788081;78;20154;-78
2021/06/10 07:41:52;;;;;;;;;;;;;;;27.53;43.31;99957.92;1799925;78;20188;-80
2021/06/10 07:44:20;;;;;;;;;;;;;;;27.56;43.38;99951.84;1778509;78;20166;-77
2021/06/10 07:46:46;;;;;;;;;;;;;;;27.57;43.24;99953.50;1798719;78;20152;-78
2021/06/10 07:49:12;;;;;;;;;;;;;;;27.61;43.19;99950.98;1796419;78;20185;-78
2021/06/10 07:51:38;;;;;;;;;;;;;;;27.71;43.40;99953.70;1796798;78;20206;-78
2021/06/10 07:54:04;;;;;;;;;;;;;;;27.89;43.43;99956.34;1772755;78;20132;-77
2021/06/10 07:56:30;;;;;;;;;;;;;;;28.10;42.78;99959.80;1797156;78;20175;-77
2021/06/10 07:59:09;;;;;;;;;;;;;;;28.25;42.61;99959.67;1795242;78;20175;-77
2021/06/10 08:01:35;;;;;;;;;;;;;;;28.42;42.24;99961.49;1796684;78;20189;-77
2021/06/10 08:04:01;;;;;;;;;;;;;;;28.62;41.96;99956.94;1793435;78;20187;-77
2021/06/10 08:06:27;;;;;;;;;;;;;;;28.82;41.34;99956.16;1794067;78;20168;-77
2021/06/10 08:08:53;;;;;;;;;;;;;;;29.02;40.77;99959.83;1794623;78;20201;-78
2021/06/10 08:11:19;;;;;;;;;;;;;;;29.23;40.15;99956.30;1800891;78;20175;-78
2021/06/10 08:13:46;;;;;;;;;;;;;;;29.39;39.58;99956.38;1800265;78;20459;-77
2021/06/10 08:16:20;;;;;;;;;;;;;;;29.54;39.04;99955.35;1801814;78;20177;-78
2021/06/10 08:18:53;;;;;;;;;;;;;;;29.68;38.87;99954.91;1799695;78;20420;-77
2021/06/10 08:21:19;;;;;;;;;;;;;;;29.85;38.41;99957.72;1801195;78;20168;-81
2021/06/10 08:23:50;;;;;;;;;;;;;;;29.96;38.17;99952.30;1792113;78;20186;-79
2021/06/10 08:26:19;;;;;;;;;;;;;;;30.06;38.06;99950.75;1789341;78;20644;-78
2021/06/10 08:28:46;;;;;;;;;;;;;;;30.18;38.13;99944.25;1796722;78;20220;-78
2021/06/10 08:31:12;;;;;;;;;;;;;;;30.27;37.62;99939.67;1777957;78;20213;-78
2021/06/10 08:33:40;;;;;;;;;;;;;;;30.36;37.45;99941.75;1797589;78;20218;-78
2021/06/10 08:36:06;;;;;;;;;;;;;;;30.42;37.08;99939.97;1797849;78;20172;-78
2021/06/10 08:38:35;;;;;;;;;;;;;;;30.49;36.62;99938.21;1776328;78;20200;-77
2021/06/10 08:41:02;;;;;;;;;;;;;;;30.54;34.06;99933.41;1796904;78;20182;-79
2021/06/10 08:43:28;;;;;;;;;;;;;;;30.57;35.39;99933.37;1798212;78;20192;-78
2021/06/10 08:46:02;;;;;;;;;;;;;;;30.62;35.91;99930.52;1795946;78;20159;-78
2021/06/10 08:48:51;;;;;;;;;;;;;;;30.66;35.99;99929.31;1800237;78;20198;-78
2021/06/10 08:51:15;;;;;;;;;;;;;;;30.69;36.10;99926.77;1797006;78;20185;-77
2021/06/10 08:53:47;;;;;;;;;;;;;;;30.73;35.99;99931.16;1795818;78;20192;-78
2021/06/10 08:56:13;;;;;;;;;;;;;;;30.74;35.74;99923.13;1796089;78;20204;-78
2021/06/10 08:58:40;;;;;;;;;;;;;;;30.75;36.06;99924.75;1797484;78;20589;-77
2021/06/10 09:01:13;;;;;;;;;;;;;;;30.73;36.19;99911.25;1800385;78;20220;-78
2021/06/10 09:03:39;;;;;;;;;;;;;;;30.73;36.37;99914.02;1800289;78;20169;-77
2021/06/10 09:06:07;;;;;;;;;;;;;;;30.72;35.97;99908.80;1796925;78;20169;-78
2021/06/10 09:08:35;;;;;;;;;;;;;;;30.69;35.88;99905.22;1799237;78;20163;-77
2021/06/10 09:11:11;;;;;;;;;;;;;;;30.70;35.71;99904.09;1798251;78;20216;-78
2021/06/10 09:13:40;;;;;;;;;;;;;;;30.69;35.97;99904.66;1791058;78;20144;-78
2021/06/10 09:16:24;;;;;;;;;;;;;;;30.67;35.89;99903.34;1798067;78;20169;-77
2021/06/10 09:18:56;;;;;;;;;;;;;;;30.63;35.52;99913.36;1803454;78;20149;-78
2021/06/10 09:21:28;;;;;;;;;;;;;;;30.56;35.43;99908.22;1800005;78;20209;-78
2021/06/10 09:23:56;;;;;;;;;;;;;;;30.54;35.56;99903.00;1798333;78;20150;-78
2021/06/10 09:26:22;;;;;;;;;;;;;;;30.54;35.59;99907.71;1804159;78;20206;-76
2021/06/10 09:28:52;;;;;;;;;;;;;;;30.52;35.03;99905.27;1803637;78;20248;-77
2021/06/10 09:31:32;;;;;;;;;;;;;;;30.52;35.63;99901.66;1804320;78;20202;-77
2021/06/10 09:33:59;;;;;;;;;;;;;;;30.50;35.22;99897.00;1797031;78;20236;-77
2021/06/10 09:36:29;;;;;;;;;;;;;;;30.47;35.66;99896.22;1799019;78;20137;-77
2021/06/10 09:39:13;;;;;;;;;;;;;;;30.45;35.79;99892.39;1799599;78;20207;-77
2021/06/10 09:42:03;;;;;;;;;;;;;;;30.40;35.57;99884.20;1800404;78;20197;-79
2021/06/10 09:44:40;;;;;;;;;;;;;;;30.36;35.35;99888.69;1680451;83;20266;-77
2021/06/10 09:47:08;;;;;;;;;;;;;;;30.31;35.33;99885.45;1770422;78;20172;-77
2021/06/10 09:49:34;;;;;;;;;;;;;;;30.31;35.54;99883.26;1801380;78;20174;-77
2021/06/10 09:52:02;;;;;;;;;;;;;;;30.28;35.03;99884.67;1795411;78;20158;-78
2021/06/10 09:54:39;;;;;;;;;;;;;;;30.24;34.78;99876.73;1794761;78;20165;-76
2021/06/10 09:57:06;;;;;;;;;;;;;;;30.21;34.67;99879.30;1792490;78;20945;-76
2021/06/10 09:59:46;;;;;;;;;;;;;;;30.17;35.02;99872.17;1799672;78;20181;-77
2021/06/10 10:02:24;;;;;;;;;;;;;;;30.13;35.19;99875.25;1800067;78;20207;-77
2021/06/10 10:05:08;;;;;;;;;;;;;;;30.09;35.36;99867.30;1785385;78;20171;-77
2021/06/10 10:07:36;;;;;;;;;;;;;;;30.05;35.34;99871.79;1793177;78;20149;-77
2021/06/10 10:10:05;;;;;;;;;;;;;;;29.99;35.24;99866.92;1797445;78;20193;-77
2021/06/10 10:12:32;;;;;;;;;;;;;;;29.95;35.23;99869.20;1796327;78;20197;-77
2021/06/10 10:15:00;;;;;;;;;;;;;;;29.90;35.37;99869.29;1791824;78;20186;-77
2021/06/10 10:17:27;;;;;;;;;;;;;;;29.85;35.12;99863.85;1795364;78;20190;-77
2021/06/10 10:19:55;;;;;;;;;;;;;;;29.80;35.42;99862.81;1792471;78;20174;-78
2021/06/10 10:22:24;;;;;;;;;;;;;;;29.75;35.70;99859.28;1792835;78;20201;-78
2021/06/10 10:24:53;;;;;;;;;;;;;;;29.71;35.75;99854.13;1775132;78;20172;-78
2021/06/10 10:27:26;;;;;;;;;;;;;;;29.65;35.91;99851.98;1814344;77;20192;-79
2021/06/10 10:29:53;;;;;;;;;;;;;;;29.62;36.10;99853.17;1774253;79;20182;-79
2021/06/10 10:32:24;;;;;;;;;;;;;;;29.58;36.20;99850.19;1782793;77;20183;-79
2021/06/10 10:34:51;;;;;;;;;;;;;;;29.54;36.28;99854.63;1810095;77;20212;-77
2021/06/10 10:37:25;;;;;;;;;;;;;;;29.53;35.99;99851.05;1779537;78;20656;-78
2021/06/10 10:40:09;;;;;;;;;;;;;;;29.52;36.19;99857.69;1771879;78;20171;-79
2021/06/10 10:42:40;;;;;;;;;;;;;;;29.52;36.54;99856.84;1762988;78;20163;-78
2021/06/10 10:45:18;;;;;;;;;;;;;;;29.52;37.22;99870.64;1782396;78;20180;-79
2021/06/10 10:47:48;;;;;;;;;;;;;;;29.51;37.32;99867.06;1816602;77;20522;-77
2021/06/10 10:50:18;;;;;;;;;;;;;;;29.53;37.16;99873.13;1767958;78;20493;-77
2021/06/10 10:52:52;;;;;;;;;;;;;;;29.54;37.32;99876.70;1761448;78;20187;-77
2021/06/10 10:55:32;;;;;;;;;;;;;;;29.55;37.47;99879.19;1784764;78;20153;-78
2021/06/10 10:58:05;;;;;;;;;;;;;;;29.54;37.57;99882.22;1783911;78;20187;-77
2021/06/10 11:00:52;;;;;;;;;;;;;;;29.55;36.86;99882.51;1746419;77;20238;-78
2021/06/10 11:03:26;;;;;;;;;;;;;;;29.55;36.67;99883.89;1789364;78;20402;-78
2021/06/10 11:05:52;;;;;;;;;;;;;;;29.55;36.77;99878.37;1787305;78;20196;-78
2021/06/10 11:08:20;;;;;;;;;;;;;;;29.56;36.73;99873.10;1788006;78;20575;-78
2021/06/10 11:10:56;;;;;;;;;;;;;;;29.59;36.68;99867.56;1786880;78;20584;-78
2021/06/10 11:13:23;;;;;;;;;;;;;;;29.59;36.52;99864.23;1787907;78;20213;-79
2021/06/10 11:15:50;;;;;;;;;;;;;;;29.59;36.61;99867.56;1793400;78;20531;-78
2021/06/10 11:18:40;;;;;;;;;;;;;;;29.59;36.06;99864.23;1769677;79;20183;-79
2021/06/10 11:21:12;;;;;;;;;;;;;;;29.61;36.23;99868.88;1763566;78;20118;-78
2021/06/10 11:23:38;;;;;;;;;;;;;;;29.61;36.30;99868.06;1782316;78;20149;-79
2021/06/10 11:26:14;;;;;;;;;;;;;;;29.60;36.74;99868.62;1787451;78;21312;-79
2021/06/10 11:28:46;;;;;;;;;;;;;;;29.57;36.25;99865.11;1824006;77;20129;-79
2021/06/10 11:31:20;;;;;;;;;;;;;;;29.55;36.07;99867.33;1830151;76;20214;-80
2021/06/10 11:33:48;;;;;;;;;;;;;;;29.52;36.41;99872.02;1793392;78;20142;-79
2021/06/10 11:36:17;;;;;;;;;;;;;;;29.48;36.16;99875.97;1788546;78;20153;-78
2021/06/10 11:38:48;;;;;;;;;;;;;;;29.44;36.04;99874.91;1785819;78;20171;-79
2021/06/10 11:41:21;;;;;;;;;;;;;;;29.41;36.17;99882.96;1781575;78;20173;-80
2021/06/10 11:43:57;;;;;;;;;;;;;;;29.37;36.66;99880.53;1785317;78;20127;-79
2021/06/10 11:46:38;;;;;;;;;;;;;;;29.32;36.93;99882.80;1786763;78;20204;-80
2021/06/10 11:49:04;;;;;;;;;;;;;;;29.24;37.10;99881.52;1783329;78;20153;-80
2021/06/10 11:51:31;;;;;;;;;;;;;;;29.20;37.24;99888.73;1788759;78;20182;-80
2021/06/10 11:54:12;;;;;;;;;;;;;;;29.15;37.33;99883.85;1783487;78;20173;-79
2021/06/10 11:56:39;;;;;;;;;;;;;;;29.13;37.27;99886.09;1789832;78;20161;-79
2021/06/10 11:59:17;;;;;;;;;;;;;;;29.08;37.23;99888.92;1794655;78;20136;-80
2021/06/10 12:02:03;;;;;;;;;;;;;;;29.06;37.34;99882.30;1787994;78;20150;-79
2021/06/10 12:04:33;;;;;;;;;;;;;;;29.00;37.08;99889.01;1769184;77;20209;-80
2021/06/10 12:07:08;;;;;;;;;;;;;;;28.93;37.90;99883.80;1711337;83;20161;-78
2021/06/10 12:09:34;;;;;;;;;;;;;;;28.92;38.25;99877.21;1708995;83;20147;-78
2021/06/10 12:12:00;;;;;;;;;;;;;;;28.82;38.71;99872.08;1714899;83;20151;-78
2021/06/10 12:14:37;;;;;;;;;;;;;;;28.83;38.72;99866.01;1713706;83;20180;-79
2021/06/10 12:17:08;;;;;;;;;;;;;;;28.81;38.48;99860.80;1708854;83;20962;-79
2021/06/10 12:19:50;;;;;;;;;;;;;;;28.81;38.00;99865.50;1715293;83;20160;-78
2021/06/10 12:22:23;;;;;;;;;;;;;;;28.77;37.95;99856.17;1684541;83;20770;-78
2021/06/10 12:24:51;;;;;;;;;;;;;;;28.68;38.28;99842.77;1707872;80;20200;-78
2021/06/10 12:27:20;;;;;;;;;;;;;;;28.67;38.53;99843.89;1737610;82;20201;-79
2021/06/10 12:29:50;;;;;;;;;;;;;;;28.65;38.78;99842.78;1735095;80;20141;-78
2021/06/10 12:32:31;;;;;;;;;;;;;;;28.62;38.95;99842.02;1738016;80;20155;-79
2021/06/10 12:34:58;;;;;;;;;;;;;;;28.60;39.03;99837.33;1714050;82;20214;-79
2021/06/10 12:37:26;;;;;;;;;;;;;;;28.59;39.20;99832.13;1711993;81;20169;-78
2021/06/10 12:40:05;;;;;;;;;;;;;;;28.56;39.28;99832.14;1734478;81;20172;-78
2021/06/10 12:42:32;;;;;;;;;;;;;;;28.55;39.48;99829.95;1726754;82;20206;-78
2021/06/10 12:45:10;;;;;;;;;;;;;;;28.56;39.88;99830.77;1700323;82;20186;-79
2021/06/10 12:47:44;;;;;;;;;;;;;;;28.58;39.73;99822.23;1726633;82;20210;-77
2021/06/10 12:50:22;;;;;;;;;;;;;;;28.57;39.70;99833.81;1726925;81;20184;-78
2021/06/10 12:52:48;;;;;;;;;;;;;;;28.59;39.84;99842.59;1727621;82;20126;-78
2021/06/10 12:55:16;;;;;;;;;;;;;;;28.60;39.66;99855.80;1734359;82;20276;-78
2021/06/10 12:57:42;;;;;;;;;;;;;;;28.58;39.04;99856.67;1728722;81;20186;-77